createdAt,value
2018-06-19T00:00:54.267Z,3.40
2018-06-19T00:03:22.919Z,4.17
2018-06-19T00:05:51.354Z,3.00
2018-06-19T00:08:19.736Z,3.90
2018-06-19T00:10:48.243Z,3.50
2018-06-19T00:13:16.645Z,4.70
2018-06-19T00:15:45.171Z,3.60
2018-06-19T00:18:17.995Z,4.47
2018-06-19T00:20:46.779Z,3.57
2018-06-19T00:23:15.294Z,4.30
2018-06-19T00:25:43.799Z,3.50
2018-06-19T00:28:12.322Z,5.00
2018-06-19T00:30:40.791Z,4.10
2018-06-19T00:33:09.447Z,3.57
2018-06-19T00:35:37.891Z,4.60
2018-06-19T00:38:06.375Z,4.37
2018-06-19T00:40:34.879Z,4.47
2018-06-19T00:43:03.447Z,3.97
2018-06-19T00:45:32.047Z,4.03
2018-06-19T00:48:00.539Z,3.80
2018-06-19T00:50:28.931Z,3.60
2018-06-19T00:52:57.331Z,4.03
2018-06-19T00:55:25.731Z,4.33
2018-06-19T00:57:54.230Z,4.00
2018-06-19T01:00:22.904Z,2.90
2018-06-19T01:02:51.615Z,3.53
2018-06-19T01:05:20.123Z,3.93
2018-06-19T01:07:48.761Z,4.17
2018-06-19T01:10:17.207Z,3.33
2018-06-19T01:12:45.683Z,3.43
2018-06-19T01:15:14.575Z,4.30
2018-06-19T01:17:42.971Z,3.50
2018-06-19T01:20:12.515Z,3.27
2018-06-19T01:22:41.051Z,3.10
2018-06-19T01:25:09.491Z,3.97
2018-06-19T01:27:38.175Z,3.60
2018-06-19T01:30:06.693Z,3.97
2018-06-19T01:32:35.107Z,3.40
2018-06-19T01:35:03.559Z,3.50
2018-06-19T01:37:32.063Z,3.67
2018-06-19T01:40:00.740Z,3.40
2018-06-19T01:42:29.211Z,3.60
2018-06-19T01:44:57.636Z,3.40
2018-06-19T01:47:26.060Z,3.50
2018-06-19T01:49:54.535Z,4.37
2018-06-19T01:52:23.416Z,3.43
2018-06-19T01:54:51.815Z,5.00
2018-06-19T01:57:20.248Z,3.90
2018-06-19T01:59:48.746Z,4.13
2018-06-19T02:02:17.292Z,4.27
2018-06-19T02:04:46.107Z,3.90
2018-06-19T02:07:14.699Z,3.90
2018-06-19T02:09:43.083Z,3.90
2018-06-19T02:12:11.547Z,4.17
2018-06-19T02:14:39.931Z,3.73
2018-06-19T02:17:08.562Z,3.73
2018-06-19T02:19:37.067Z,3.30
2018-06-19T02:22:05.566Z,4.87
2018-06-19T02:24:34.089Z,3.70
2018-06-19T02:27:02.580Z,3.80
2018-06-19T02:29:31.071Z,3.80
2018-06-19T02:31:59.556Z,3.70
2018-06-19T02:34:28.028Z,4.60
2018-06-19T02:36:56.443Z,4.00
2018-06-19T02:39:24.908Z,3.40
2018-06-19T02:41:53.491Z,3.40
2018-06-19T02:44:21.910Z,4.00
2018-06-19T02:46:50.403Z,3.20
2018-06-19T02:49:18.823Z,3.40
2018-06-19T02:51:47.319Z,3.17
2018-06-19T02:54:15.969Z,3.20
2018-06-19T02:56:44.499Z,3.90
2018-06-19T02:59:12.912Z,3.33
2018-06-19T03:01:41.400Z,2.97
2018-06-19T03:04:09.832Z,3.50
2018-06-19T03:06:38.428Z,3.97
2018-06-19T03:09:09.347Z,4.03
2018-06-19T03:11:37.800Z,3.87
2018-06-19T03:14:06.507Z,4.03
2018-06-19T03:16:34.939Z,4.00
2018-06-19T03:19:03.782Z,4.57
2018-06-19T03:21:32.408Z,3.77
2018-06-19T03:24:01.174Z,3.77
2018-06-19T03:26:29.579Z,4.23
2018-06-19T03:28:57.976Z,3.67
2018-06-19T03:31:26.534Z,4.20
2018-06-19T03:33:55.152Z,4.97
2018-06-19T03:36:23.839Z,3.70
2018-06-19T03:38:52.255Z,4.00
2018-06-19T03:41:20.751Z,3.83
2018-06-19T03:43:49.171Z,4.30
2018-06-19T03:46:17.652Z,4.00
2018-06-19T03:48:46.143Z,3.57
2018-06-19T03:51:14.608Z,4.27
2018-06-19T03:53:43.016Z,4.03
2018-06-19T03:56:11.523Z,4.03
2018-06-19T03:58:40.015Z,4.90
2018-06-19T04:01:08.676Z,3.67
2018-06-19T04:03:37.185Z,3.40
2018-06-19T04:06:05.683Z,3.70
2018-06-19T04:08:34.215Z,4.20
2018-06-19T04:11:02.732Z,3.47
2018-06-19T04:13:31.341Z,3.67
2018-06-19T04:15:59.811Z,4.07
2018-06-19T04:18:28.263Z,3.97
2018-06-19T04:20:56.758Z,3.67
2018-06-19T04:23:25.187Z,4.57
2018-06-19T04:25:53.627Z,4.77
2018-06-19T04:28:22.156Z,4.87
2018-06-19T04:30:50.619Z,6.37
2018-06-19T04:33:19.136Z,7.87
2018-06-19T04:35:47.539Z,5.60
2018-06-19T04:38:16.383Z,4.27
2018-06-19T04:40:44.771Z,4.90
2018-06-19T04:43:13.174Z,4.47
2018-06-19T04:45:41.710Z,4.57
2018-06-19T04:48:10.174Z,4.90
2018-06-19T04:50:38.851Z,6.10
2018-06-19T04:53:07.251Z,6.57
2018-06-19T04:55:35.657Z,6.30
2018-06-19T04:58:04.181Z,5.37
2018-06-19T05:00:32.651Z,6.00
2018-06-19T05:03:01.239Z,5.33
2018-06-19T05:05:29.737Z,4.90
2018-06-19T05:07:58.129Z,4.17
2018-06-19T05:10:26.602Z,3.67
2018-06-19T05:12:55.075Z,3.93
2018-06-19T05:15:23.718Z,3.50
2018-06-19T05:17:52.220Z,3.20
2018-06-19T05:20:20.736Z,2.33
2018-06-19T05:22:49.159Z,2.87
2018-06-19T05:25:17.584Z,2.47
2018-06-19T05:27:46.255Z,2.90
2018-06-19T05:30:14.683Z,3.27
2018-06-19T05:32:43.059Z,2.67
2018-06-19T05:35:11.511Z,2.77
2018-06-19T05:37:39.970Z,3.30
2018-06-19T05:40:08.635Z,3.03
2018-06-19T05:42:37.035Z,2.30
2018-06-19T05:45:05.431Z,2.93
2018-06-19T05:47:33.951Z,2.27
2018-06-19T05:50:02.367Z,2.80
2018-06-19T05:52:30.845Z,2.57
2018-06-19T05:54:59.243Z,2.20
2018-06-19T05:57:27.687Z,3.83
2018-06-19T05:59:56.126Z,2.13
2018-06-19T06:02:24.605Z,2.77
2018-06-19T06:04:53.251Z,2.80
2018-06-19T06:07:21.671Z,2.40
2018-06-19T06:09:50.415Z,2.00
2018-06-19T06:12:18.893Z,2.30
2018-06-19T06:14:47.400Z,2.50
2018-06-19T06:17:16.089Z,2.17
2018-06-19T06:19:44.535Z,1.77
2018-06-19T06:22:12.944Z,2.37
2018-06-19T06:24:41.364Z,2.20
2018-06-19T06:27:09.923Z,1.90
2018-06-19T06:29:38.813Z,2.07
2018-06-19T06:32:07.197Z,2.37
2018-06-19T06:34:35.711Z,1.93
2018-06-19T06:37:04.207Z,2.10
2018-06-19T06:39:32.676Z,2.07
2018-06-19T06:42:01.388Z,2.10
2018-06-19T06:44:29.802Z,1.80
2018-06-19T06:46:58.290Z,2.03
2018-06-19T06:49:26.811Z,2.33
2018-06-19T06:51:55.275Z,1.73
2018-06-19T06:54:23.974Z,2.33
2018-06-19T06:56:56.519Z,2.50
2018-06-19T06:59:25.135Z,2.00
2018-06-19T07:01:53.543Z,1.43
2018-06-19T07:04:21.936Z,1.50
2018-06-19T07:06:50.827Z,1.90
2018-06-19T07:09:19.247Z,1.40
2018-06-19T07:11:47.755Z,1.77
2018-06-19T07:14:16.226Z,2.00
2018-06-19T07:16:44.752Z,1.33
2018-06-19T07:19:13.300Z,1.40
2018-06-19T07:21:41.828Z,1.10
2018-06-19T07:24:10.339Z,1.17
2018-06-19T07:26:38.860Z,1.10
2018-06-19T07:29:07.247Z,0.83
2018-06-19T07:31:35.665Z,1.10
2018-06-19T07:34:04.218Z,0.80
2018-06-19T07:36:32.731Z,0.93
2018-06-19T07:39:01.195Z,0.70
2018-06-19T07:41:29.612Z,0.63
2018-06-19T07:43:58.099Z,0.80
2018-06-19T07:46:26.557Z,0.80
2018-06-19T07:48:55.235Z,0.60
2018-06-19T07:51:23.732Z,0.70
2018-06-19T07:53:52.215Z,0.60
2018-06-19T07:56:20.623Z,0.70
2018-06-19T07:58:49.155Z,0.63
2018-06-19T08:01:17.603Z,0.50
2018-06-19T08:03:45.988Z,0.90
2018-06-19T08:06:14.382Z,0.90
2018-06-19T08:08:42.823Z,1.10
2018-06-19T08:11:11.286Z,0.60
2018-06-19T08:13:40.167Z,0.70
2018-06-19T08:16:08.687Z,0.80
2018-06-19T08:18:37.509Z,0.60
2018-06-19T08:21:06.151Z,0.50
2018-06-19T08:23:34.576Z,0.40
2018-06-19T08:26:03.279Z,0.50
2018-06-19T08:28:31.690Z,0.60
2018-06-19T08:31:00.154Z,0.50
2018-06-19T08:33:28.615Z,0.53
2018-06-19T08:35:57.035Z,0.57
2018-06-19T08:38:25.583Z,0.60
2018-06-19T08:40:54.075Z,0.77
2018-06-19T08:43:22.560Z,0.70
2018-06-19T08:45:51.369Z,0.70
2018-06-19T08:48:19.873Z,0.57
2018-06-19T08:50:48.272Z,0.60
2018-06-19T08:53:16.980Z,0.97
2018-06-19T08:55:45.420Z,0.50
2018-06-19T08:58:13.818Z,0.70
2018-06-19T09:00:42.327Z,0.77
2018-06-19T09:03:11.198Z,0.50
2018-06-19T09:05:39.725Z,0.50
2018-06-19T09:08:08.275Z,1.10
2018-06-19T09:10:36.791Z,0.70
2018-06-19T09:13:05.271Z,0.70
2018-06-19T09:15:33.795Z,0.60
2018-06-19T09:18:02.263Z,0.67
2018-06-19T09:20:31.011Z,0.60
2018-06-19T09:22:59.487Z,0.90
2018-06-19T09:25:27.924Z,1.30
2018-06-19T09:27:56.567Z,0.63
2018-06-19T09:30:25.036Z,0.97
2018-06-19T09:32:53.547Z,0.70
2018-06-19T09:35:22.011Z,1.07
2018-06-19T09:37:50.536Z,0.70
2018-06-19T09:40:18.960Z,0.90
2018-06-19T09:42:47.503Z,0.70
2018-06-19T09:45:15.979Z,0.60
2018-06-19T09:47:44.499Z,0.80
2018-06-19T09:50:13.007Z,1.10
2018-06-19T09:52:41.511Z,0.97
2018-06-19T09:55:10.117Z,0.87
2018-06-19T09:57:38.611Z,0.70
2018-06-19T10:00:07.296Z,0.60
2018-06-19T10:02:35.756Z,0.70
2018-06-19T10:05:04.267Z,0.57
2018-06-19T10:07:32.635Z,1.00
2018-06-19T10:10:01.071Z,0.70
2018-06-19T10:12:29.495Z,0.50
2018-06-19T10:14:58.069Z,0.90
2018-06-19T10:17:26.579Z,0.60
2018-06-19T10:19:55.288Z,0.60
2018-06-19T10:22:23.703Z,0.60
2018-06-19T10:24:52.114Z,0.90
2018-06-19T10:27:20.543Z,0.60
2018-06-19T10:29:48.978Z,0.90
2018-06-19T10:32:17.483Z,0.53
2018-06-19T10:34:45.963Z,0.70
2018-06-19T10:37:14.395Z,0.80
2018-06-19T10:39:42.883Z,0.67
2018-06-19T10:42:11.379Z,0.60
2018-06-19T10:44:39.774Z,0.57
2018-06-19T10:47:08.297Z,0.53
2018-06-19T10:49:36.714Z,0.70
2018-06-19T10:52:05.111Z,0.70
2018-06-19T10:54:33.776Z,0.77
2018-06-19T10:57:02.175Z,1.10
2018-06-19T10:59:30.748Z,0.93
2018-06-19T11:01:59.159Z,0.97
2018-06-19T11:04:27.600Z,1.03
2018-06-19T11:06:56.391Z,0.80
2018-06-19T11:09:24.941Z,0.83
2018-06-19T11:11:53.383Z,1.27
2018-06-19T11:14:21.939Z,0.97
2018-06-19T11:16:50.395Z,1.13
2018-06-19T11:19:18.791Z,1.17
2018-06-19T11:21:47.231Z,1.10
2018-06-19T11:24:15.644Z,1.03
2018-06-19T11:26:44.151Z,1.50
2018-06-19T11:29:12.531Z,0.80
2018-06-19T11:31:41.028Z,1.37
2018-06-19T11:34:09.532Z,1.50
2018-06-19T11:36:38.056Z,0.90
2018-06-19T11:39:10.669Z,0.80
2018-06-19T11:41:39.383Z,1.17
2018-06-19T11:44:07.960Z,1.23
2018-06-19T11:46:36.487Z,1.13
2018-06-19T11:49:04.975Z,0.90
2018-06-19T11:51:33.408Z,1.20
2018-06-19T11:54:02.323Z,0.97
2018-06-19T11:56:30.771Z,0.70
2018-06-19T11:58:59.373Z,1.00
2018-06-19T12:01:27.780Z,1.73
2018-06-19T12:03:56.370Z,1.03
2018-06-19T12:06:24.851Z,0.77
2018-06-19T12:08:53.387Z,1.23
2018-06-19T12:11:21.811Z,1.13
2018-06-19T12:13:50.249Z,0.80
2018-06-19T12:16:18.655Z,1.83
2018-06-19T12:18:47.047Z,1.03
2018-06-19T12:21:15.543Z,0.80
2018-06-19T12:23:44.012Z,1.33
2018-06-19T12:26:12.468Z,0.90
2018-06-19T12:28:41.144Z,0.97
2018-06-19T12:31:09.560Z,0.90
2018-06-19T12:33:37.963Z,1.03
2018-06-19T12:36:07.523Z,0.77
2018-06-19T12:38:36.013Z,0.80
2018-06-19T12:41:04.496Z,0.90
2018-06-19T12:43:33.011Z,0.80
2018-06-19T12:46:01.647Z,0.90
2018-06-19T12:48:30.091Z,0.97
2018-06-19T12:52:07.708Z,0.90
2018-06-19T12:55:01.138Z,0.83
2018-06-19T12:57:29.571Z,0.87
2018-06-19T12:59:58.061Z,0.77
2018-06-19T13:02:26.549Z,0.80
2018-06-19T13:05:06.199Z,0.50
2018-06-19T13:07:34.726Z,0.60
2018-06-19T13:10:03.203Z,0.60
2018-06-19T13:12:42.747Z,0.60
2018-06-19T13:15:11.160Z,0.70
2018-06-19T13:17:50.844Z,0.70
2018-06-19T13:20:30.415Z,0.70
2018-06-19T13:22:58.867Z,0.70
2018-06-19T13:25:27.707Z,0.60
2018-06-19T13:27:56.156Z,0.80
2018-06-19T13:30:35.782Z,0.60
2018-06-19T13:33:04.172Z,0.67
2018-06-19T13:35:32.583Z,0.60
2018-06-19T13:38:00.972Z,0.70
2018-06-19T13:41:09.473Z,0.60
2018-06-19T13:43:49.216Z,0.57
2018-06-19T13:46:17.689Z,0.53
2018-06-19T13:48:46.142Z,0.60
2018-06-19T13:51:14.620Z,0.60
2018-06-19T13:53:43.885Z,0.60
2018-06-19T13:57:32.863Z,0.50
2018-06-19T14:00:02.704Z,0.60
2018-06-19T14:02:31.183Z,0.60
2018-06-19T14:05:00.010Z,0.50
2018-06-19T14:07:29.460Z,0.67
2018-06-19T14:10:09.187Z,0.70
2018-06-19T14:13:03.410Z,0.50
2018-06-19T14:15:37.287Z,0.50
2018-06-19T14:18:06.269Z,0.60
2018-06-19T14:20:34.964Z,0.57
2018-06-19T14:23:03.464Z,1.10
2018-06-19T14:25:31.953Z,0.60
2018-06-19T14:28:00.371Z,0.60
2018-06-19T14:30:28.809Z,0.60
2018-06-19T14:32:57.296Z,0.70
2018-06-19T14:35:25.831Z,0.60
2018-06-19T14:37:54.258Z,0.63
2018-06-19T14:40:22.787Z,0.80
2018-06-19T14:42:51.331Z,0.50
2018-06-19T14:45:19.833Z,0.70
2018-06-19T14:47:48.283Z,0.90
2018-06-19T14:50:16.772Z,0.60
2018-06-19T14:52:45.204Z,0.70
2018-06-19T14:55:13.647Z,0.93
2018-06-19T14:57:42.113Z,0.83
2018-06-19T15:00:11.207Z,0.70
2018-06-19T15:02:40.127Z,1.03
2018-06-19T15:05:09.037Z,1.13
2018-06-19T15:07:38.524Z,0.77
2018-06-19T15:10:08.250Z,0.73
2018-06-19T15:12:36.708Z,0.77
2018-06-19T15:15:05.139Z,1.10
2018-06-19T15:17:33.627Z,0.80
2018-06-19T15:20:02.083Z,0.60
2018-06-19T15:22:30.507Z,0.90
2018-06-19T15:24:59.003Z,0.93
2018-06-19T15:27:27.483Z,1.00
2018-06-19T15:29:55.975Z,0.87
2018-06-19T15:32:24.439Z,0.80
2018-06-19T15:34:52.882Z,0.80
2018-06-19T15:37:21.483Z,1.03
2018-06-19T15:39:49.946Z,0.93
2018-06-19T15:42:18.327Z,1.10
2018-06-19T15:44:46.736Z,0.90
2018-06-19T15:47:15.195Z,1.00
2018-06-19T15:49:43.744Z,0.80
2018-06-19T15:52:12.221Z,0.70
2018-06-19T15:54:40.631Z,0.97
2018-06-19T15:57:09.138Z,0.70
2018-06-19T15:59:37.510Z,1.10
2018-06-19T16:02:05.976Z,0.97
2018-06-19T16:04:34.391Z,1.10
2018-06-19T16:07:02.883Z,1.10
2018-06-19T16:09:31.343Z,1.17
2018-06-19T16:11:59.877Z,1.43
2018-06-19T16:14:28.323Z,1.00
2018-06-19T16:16:56.760Z,1.00
2018-06-19T16:19:25.227Z,1.07
2018-06-19T16:21:53.739Z,0.97
2018-06-19T16:24:22.140Z,1.30
2018-06-19T16:26:50.555Z,1.10
2018-06-19T16:29:19.154Z,1.10
2018-06-19T16:31:47.596Z,1.20
2018-06-19T16:34:16.099Z,1.10
2018-06-19T16:36:44.622Z,1.20
2018-06-19T16:39:13.499Z,0.70
2018-06-19T16:41:41.959Z,1.00
2018-06-19T16:44:10.508Z,1.23
2018-06-19T16:46:39.049Z,0.90
2018-06-19T16:49:07.839Z,1.10
2018-06-19T16:51:36.247Z,1.03
2018-06-19T16:54:04.763Z,0.80
2018-06-19T16:56:33.185Z,0.83
2018-06-19T16:59:01.612Z,0.73
2018-06-19T17:01:30.071Z,1.20
2018-06-19T17:03:58.466Z,1.00
2018-06-19T17:06:27.191Z,1.10
2018-06-19T17:08:55.787Z,1.20
2018-06-19T17:11:24.248Z,1.17
2018-06-19T17:13:52.723Z,0.90
2018-06-19T17:16:21.830Z,1.03
2018-06-19T17:18:50.243Z,1.13
2018-06-19T17:21:18.671Z,1.70
2018-06-19T17:23:47.360Z,1.20
2018-06-19T17:26:15.896Z,1.53
2018-06-19T17:28:44.383Z,1.50
2018-06-19T17:31:12.880Z,1.00
2018-06-19T17:33:41.297Z,1.30
2018-06-19T17:36:10.150Z,0.90
2018-06-19T17:38:38.713Z,0.80
2018-06-19T17:41:07.367Z,0.90
2018-06-19T17:43:35.868Z,0.80
2018-06-19T17:46:04.331Z,1.00
2018-06-19T17:48:32.814Z,0.90
2018-06-19T17:51:01.370Z,1.03
2018-06-19T17:53:29.908Z,0.80
2018-06-19T17:55:58.463Z,1.30
2018-06-19T17:58:26.921Z,0.80
2018-06-19T18:00:55.791Z,0.87
2018-06-19T18:03:24.236Z,0.70
2018-06-19T18:05:52.720Z,0.90
2018-06-19T18:08:21.199Z,1.07
2018-06-19T18:10:49.748Z,1.10
2018-06-19T18:13:18.241Z,1.33
2018-06-19T18:15:46.738Z,0.83
2018-06-19T18:18:16.298Z,1.20
2018-06-19T18:20:44.856Z,1.40
2018-06-19T18:23:14.243Z,1.10
2018-06-19T18:25:43.013Z,1.00
2018-06-19T18:28:11.960Z,1.10
2018-06-19T18:30:40.559Z,1.07
2018-06-19T18:33:09.160Z,1.30
2018-06-19T18:35:38.648Z,0.77
2018-06-19T18:38:07.819Z,1.00
2018-06-19T18:40:36.350Z,1.13
2018-06-19T18:43:05.345Z,1.17
2018-06-19T18:45:34.946Z,1.27
2018-06-19T18:48:03.992Z,0.80
2018-06-19T18:50:32.763Z,1.10
2018-06-19T18:53:01.300Z,1.03
2018-06-19T18:55:30.326Z,1.30
2018-06-19T18:57:58.889Z,1.13
2018-06-19T19:00:27.399Z,1.10
2018-06-19T19:02:55.937Z,1.03
2018-06-19T19:05:24.510Z,1.37
2018-06-19T19:07:54.052Z,1.23
2018-06-19T19:10:27.644Z,0.90
2018-06-19T19:12:56.916Z,1.47
2018-06-19T19:15:30.993Z,0.73
2018-06-19T19:18:04.862Z,1.03
2018-06-19T19:20:34.365Z,1.57
2018-06-19T19:23:02.903Z,1.53
2018-06-19T19:25:31.471Z,1.73
2018-06-19T19:28:05.324Z,1.30
2018-06-19T19:30:33.774Z,1.40
2018-06-19T19:33:02.788Z,1.53
2018-06-19T19:35:32.015Z,1.10
2018-06-19T19:39:09.092Z,1.27
2018-06-19T19:41:37.631Z,1.53
2018-06-19T19:44:07.089Z,1.50
2018-06-19T19:46:40.876Z,1.77
2018-06-19T19:49:09.617Z,1.30
2018-06-19T19:51:38.076Z,1.57
2018-06-19T19:54:06.854Z,1.10
2018-06-19T19:56:40.634Z,1.67
2018-06-19T19:59:09.060Z,1.27
2018-06-19T20:01:37.543Z,1.20
2018-06-19T20:04:06.070Z,1.67
2018-06-19T20:06:34.916Z,1.70
2018-06-19T20:09:03.765Z,1.80
2018-06-19T20:11:32.225Z,1.90
2018-06-19T20:14:00.772Z,1.50
2018-06-19T20:16:29.307Z,1.90
2018-06-19T20:18:57.970Z,1.97
2018-06-19T20:21:26.473Z,1.53
2018-06-19T20:23:55.127Z,1.60
2018-06-19T20:26:23.587Z,1.30
2018-06-19T20:28:52.065Z,1.30
2018-06-19T20:31:20.611Z,1.60
2018-06-19T20:33:49.117Z,1.67
2018-06-19T20:36:17.679Z,1.80
2018-06-19T20:38:46.202Z,1.73
2018-06-19T20:41:14.617Z,2.27
2018-06-19T20:43:43.310Z,1.87
2018-06-19T20:46:11.819Z,2.10
2018-06-19T20:48:40.255Z,1.90
2018-06-19T20:51:08.959Z,2.00
2018-06-19T20:53:37.455Z,2.17
2018-06-19T20:56:05.950Z,2.20
2018-06-19T20:58:34.395Z,1.80
2018-06-19T21:01:02.892Z,2.30
2018-06-19T21:03:31.427Z,2.73
2018-06-19T21:05:59.876Z,2.60
2018-06-19T21:08:33.771Z,2.20
2018-06-19T21:11:02.201Z,1.93
2018-06-19T21:13:30.616Z,2.33
2018-06-19T21:15:59.066Z,3.30
2018-06-19T21:18:27.455Z,2.20
2018-06-19T21:20:56.075Z,2.13
2018-06-19T21:23:24.514Z,2.20
2018-06-19T21:25:52.939Z,2.80
2018-06-19T21:28:21.336Z,2.20
2018-06-19T21:30:50.087Z,2.00
2018-06-19T21:33:18.711Z,2.10
2018-06-19T21:35:47.132Z,2.00
2018-06-19T21:38:15.691Z,2.90
2018-06-19T21:40:44.131Z,2.10
2018-06-19T21:43:12.580Z,2.40
2018-06-19T21:45:41.179Z,2.43
2018-06-19T21:48:09.579Z,2.77
2018-06-19T21:50:37.991Z,2.17
2018-06-19T21:53:06.651Z,2.27
2018-06-19T21:55:35.108Z,2.50
2018-06-19T21:58:03.600Z,2.37
2018-06-19T22:00:32.072Z,2.33
2018-06-19T22:03:00.549Z,2.83
2018-06-19T22:05:29.068Z,2.40
2018-06-19T22:07:57.527Z,3.07
2018-06-19T22:10:26.059Z,3.27
2018-06-19T22:12:54.480Z,2.43
2018-06-19T22:15:23.131Z,2.77
2018-06-19T22:17:51.631Z,2.87
2018-06-19T22:20:20.136Z,2.73
2018-06-19T22:22:48.655Z,2.50
2018-06-19T22:25:17.106Z,2.40
2018-06-19T22:27:45.776Z,3.20
2018-06-19T22:30:14.238Z,2.17
2018-06-19T22:32:42.694Z,2.90
2018-06-19T22:35:11.220Z,3.20
2018-06-19T22:37:39.707Z,3.07
2018-06-19T22:40:08.346Z,3.07
2018-06-19T22:42:36.762Z,2.77
2018-06-19T22:45:05.599Z,2.57
2018-06-19T22:47:34.239Z,2.10
2018-06-19T22:50:02.608Z,3.07
2018-06-19T22:52:31.228Z,2.87
2018-06-19T22:54:59.759Z,3.00
2018-06-19T22:57:28.150Z,2.53
2018-06-19T22:59:56.600Z,2.67
2018-06-19T23:02:25.028Z,3.20
2018-06-19T23:04:53.999Z,2.57
2018-06-19T23:07:22.372Z,3.00
2018-06-19T23:09:50.795Z,2.43
2018-06-19T23:12:19.210Z,2.97
2018-06-19T23:14:47.695Z,3.33
2018-06-19T23:17:16.267Z,3.30
2018-06-19T23:19:44.679Z,3.20
2018-06-19T23:22:13.166Z,3.07
2018-06-19T23:24:41.707Z,3.27
2018-06-19T23:27:10.156Z,4.10
2018-06-19T23:29:38.762Z,3.50
2018-06-19T23:32:07.248Z,2.83
2018-06-19T23:34:35.715Z,3.27
2018-06-19T23:37:04.179Z,3.07
2018-06-19T23:39:32.635Z,4.30
2018-06-19T23:42:01.345Z,3.70
2018-06-19T23:44:29.943Z,3.30
2018-06-19T23:46:58.327Z,2.83
2018-06-19T23:49:26.855Z,2.87
2018-06-19T23:51:55.307Z,3.10
2018-06-19T23:54:24.090Z,3.00
2018-06-19T23:56:52.514Z,3.30
2018-06-19T23:59:20.991Z,2.70
